createdAt,value
2016-02-18T15:29:29.209Z,11.18
2016-02-18T15:30:29.305Z,10.5
2016-02-18T15:31:29.230Z,10.5
2016-02-18T15:32:29.139Z,10.5
2016-02-18T15:33:29.126Z,10.89
2016-02-18T15:34:29.238Z,10.6
2016-02-18T15:35:29.131Z,10.8
2016-02-18T15:36:28.928Z,10.69
2016-02-18T15:37:28.916Z,10.31
2016-02-18T15:39:03.811Z,11.08
2016-02-18T15:40:02.673Z,10.69
2016-02-18T15:41:02.645Z,10.89
2016-02-18T15:42:02.616Z,10.22
2016-02-18T15:43:02.634Z,10.03
2016-02-18T15:44:02.637Z,10.98
2016-02-18T15:45:02.546Z,11.37
2016-02-18T15:46:02.626Z,14.64
2016-02-18T15:47:02.708Z,22.1
2016-02-18T15:48:02.570Z,12.87
2016-02-18T15:49:02.464Z,10.85
2016-02-18T15:50:02.434Z,12.18
2016-02-18T15:51:02.484Z,16.92
2016-02-18T15:52:02.409Z,11.21
2016-02-18T15:53:02.395Z,10.92
2016-02-18T15:54:02.351Z,12.93
2016-02-18T15:55:02.339Z,13.21
2016-02-18T15:56:02.357Z,13.02
2016-02-18T15:57:02.313Z,12.73
2016-02-18T15:58:02.269Z,15.24
2016-02-18T15:59:02.255Z,12.54
2016-02-18T16:00:02.227Z,11.48
2016-02-18T16:01:02.214Z,11.58
2016-02-18T16:02:02.202Z,11.68
2016-02-18T16:03:02.172Z,11.48
2016-02-18T16:04:02.238Z,11.38
2016-02-18T16:05:02.366Z,11.1
2016-02-18T16:06:02.118Z,10.42
2016-02-18T16:12:58.309Z,13.11
2016-02-18T16:35:16.118Z,27.53
2016-02-18T16:36:15.965Z,28.26
2016-02-18T16:37:15.951Z,27.76
2016-02-18T16:38:15.907Z,28.26
2016-02-18T16:39:15.988Z,29.71
2016-02-18T16:40:15.850Z,31.16
2016-02-18T16:41:15.775Z,32.54
2016-02-18T16:42:15.856Z,29.43
2016-02-18T16:43:15.795Z,29.03
2016-02-18T16:44:15.690Z,30.68
2016-02-18T16:45:15.676Z,31.36
2016-02-18T16:46:15.662Z,32.23
2016-02-18T16:47:15.635Z,32.23
2016-02-18T16:48:15.653Z,31.74
2016-02-18T16:49:15.609Z,31.74
2016-02-18T16:50:15.595Z,31.26
2016-02-18T16:51:15.567Z,30.58
2016-02-18T16:52:15.554Z,29.71
2016-02-18T16:53:15.619Z,30.58
2016-02-18T16:54:15.528Z,31.15
2016-02-18T16:55:15.687Z,31.36
2016-02-18T16:56:15.503Z,32.14
2016-02-18T16:57:15.505Z,32.42
2016-02-18T16:58:15.461Z,32.14
2016-02-18T16:59:15.448Z,31.94
2016-02-18T17:00:15.513Z,31.16
2016-02-18T17:01:15.407Z,30.47
2016-02-18T17:02:15.394Z,31.16
2016-02-18T17:03:15.396Z,31.74
2016-02-18T17:04:15.384Z,32.23
2016-02-18T17:05:15.371Z,33.01
2016-02-18T17:06:15.326Z,32.42
2016-02-18T17:07:15.314Z,30
2016-02-18T17:08:15.316Z,29.61
2016-02-18T17:09:15.288Z,31.07
2016-02-18T17:10:15.337Z,31.84
2016-02-18T17:11:15.246Z,32.33
2016-02-18T17:12:15.233Z,32.52
2016-02-18T17:13:15.220Z,32.14
2016-02-18T17:14:15.254Z,31.56
2016-02-18T17:15:15.366Z,32.23
2016-02-18T17:16:15.165Z,30.98
2016-02-18T17:17:15.325Z,30.49
2016-02-18T17:18:15.218Z,31.07
2016-02-18T17:19:15.112Z,31.84
2016-02-18T17:20:15.114Z,31.94
2016-02-18T17:21:15.086Z,32.42
2016-02-18T17:22:15.073Z,32.04
2016-02-18T17:23:15.044Z,31.74
2016-02-18T17:24:15.046Z,32.04
2016-02-18T17:25:15.018Z,31.26
2016-02-18T17:26:15.005Z,29.61
2016-02-18T17:27:14.977Z,30.49
2016-02-18T17:28:14.964Z,31.54
2016-02-18T17:29:14.966Z,32.42
2016-02-18T17:30:14.938Z,32.91
2016-02-18T17:31:14.925Z,32.41
2016-02-18T17:32:15.052Z,31.16
2016-02-18T17:33:14.899Z,29.81
2016-02-18T17:34:14.871Z,30.68
2016-02-18T17:35:14.858Z,31.16
2016-02-18T17:36:14.844Z,32.04
2016-02-18T17:37:14.816Z,32.91
2016-02-18T17:38:14.803Z,32.71
2016-02-18T17:39:14.790Z,32.52
2016-02-18T17:40:14.918Z,32.04
2016-02-18T17:41:14.607Z,31.63
2016-02-18T17:42:14.783Z,30.49
2016-02-18T17:43:14.738Z,30.38
2016-02-18T17:44:14.709Z,31.63
2016-02-18T17:45:14.697Z,32.12
2016-02-18T17:46:14.684Z,32.12
2016-02-18T17:47:14.655Z,32.52
2016-02-18T17:48:14.643Z,31.94
2016-02-18T17:49:14.629Z,31.65
2016-02-18T17:50:14.679Z,32.04
2016-02-18T17:51:14.588Z,30.58
2016-02-18T17:52:14.575Z,29.91
2016-02-18T17:53:14.562Z,31.07
2016-02-18T17:54:14.550Z,31.84
2016-02-18T17:55:14.552Z,32.21
2016-02-18T17:56:14.664Z,33.01
2016-02-18T17:57:14.494Z,32.04
2016-02-18T17:58:14.482Z,31.74
2016-02-18T17:59:14.453Z,30.18
2016-02-18T18:00:14.455Z,30
2016-02-18T18:01:14.428Z,31.07
2016-02-18T18:02:14.414Z,32.23
2016-02-18T18:03:14.401Z,32.14
2016-02-18T18:04:14.389Z,32.52
2016-02-18T18:05:14.375Z,31.74
2016-02-18T18:06:14.347Z,30.98
2016-02-18T18:07:14.335Z,31.76
2016-02-18T18:08:14.321Z,29.44
2016-02-18T18:09:14.402Z,29.83
2016-02-18T18:10:14.280Z,30.89
2016-02-18T18:11:14.266Z,30.79
2016-02-18T18:12:14.254Z,31.18
2016-02-18T18:13:14.240Z,30.81
2016-02-18T18:14:14.229Z,31.01
2016-02-18T18:15:14.199Z,31.49
2016-02-18T18:16:14.186Z,30.81
2016-02-18T18:17:14.174Z,29.06
2016-02-18T18:18:14.160Z,29.05
2016-02-18T18:19:14.131Z,30.52
2016-02-18T18:20:14.120Z,31.01
2016-02-18T18:21:14.106Z,31.2
2016-02-18T18:22:14.093Z,31.97
2016-02-18T18:23:14.096Z,30.23
2016-02-18T18:24:14.051Z,28.29
2016-02-18T18:25:14.054Z,29.46
2016-02-18T18:26:14.026Z,30.62
2016-02-18T18:27:14.013Z,31.1
2016-02-18T18:28:14.047Z,31.68
2016-02-18T18:29:13.986Z,31.67
2016-02-18T18:30:14.036Z,31.1
2016-02-18T18:31:13.992Z,31.2
2016-02-18T18:32:13.932Z,31.76
2016-02-18T18:33:13.919Z,30.11
2016-02-18T18:34:13.953Z,29.83
2016-02-18T18:35:13.893Z,30.11
2016-02-18T18:36:13.865Z,31.09
2016-02-18T18:37:13.852Z,31.67
2016-02-18T18:38:13.838Z,32.34
2016-02-18T18:39:13.810Z,32.15
2016-02-18T18:40:13.813Z,29.52
2016-02-18T18:41:13.847Z,30.29
2016-02-18T18:42:13.772Z,31.07
2016-02-18T18:43:13.759Z,31.94
2016-02-18T18:44:13.746Z,33.01
2016-02-18T18:45:13.733Z,32.91
2016-02-18T18:46:13.720Z,32.42
2016-02-18T18:47:13.692Z,32.14
2016-02-18T18:48:13.695Z,32.33
2016-02-18T18:49:13.665Z,32.14
2016-02-18T18:50:13.637Z,30.39
2016-02-18T18:51:13.639Z,30.49
2016-02-18T18:52:13.612Z,32.23
2016-02-18T18:53:13.614Z,32.52
2016-02-18T18:54:13.586Z,32.62
2016-02-18T18:55:13.557Z,31.94
2016-02-18T18:56:13.544Z,31.36
2016-02-18T18:57:13.531Z,32.42
2016-02-18T18:58:13.518Z,32.42
2016-02-18T18:59:13.505Z,31.84
2016-02-18T19:00:13.477Z,29.52
2016-02-18T19:01:13.464Z,30.68
2016-02-18T19:02:13.451Z,32.14
2016-02-18T19:03:13.438Z,32.33
2016-02-18T19:04:13.408Z,32.6
2016-02-18T19:05:13.397Z,32.41
2016-02-18T19:06:13.383Z,32.21
2016-02-18T19:07:13.370Z,30.57
2016-02-18T19:08:13.342Z,30.76
2016-02-18T19:09:13.329Z,31.54
2016-02-18T19:10:13.316Z,31.25
2016-02-18T19:11:13.303Z,32.21
2016-02-18T19:12:13.274Z,32.6
2016-02-18T19:13:13.277Z,32.04
2016-02-18T19:14:13.265Z,31.94
2016-02-18T19:15:13.251Z,32.14
2016-02-18T19:16:13.223Z,32.33
2016-02-18T19:17:13.210Z,30
2016-02-18T19:18:13.197Z,30.57
2016-02-18T19:19:13.168Z,31.05
2016-02-18T19:20:13.155Z,31.63
2016-02-18T19:21:13.143Z,32.14
2016-02-18T19:22:13.129Z,31.94
2016-02-18T19:23:13.116Z,31.56
2016-02-18T19:24:13.088Z,32.04
2016-02-18T19:25:13.075Z,31.74
2016-02-18T19:26:13.062Z,31.47
2016-02-18T19:27:13.034Z,29.73
2016-02-18T19:28:13.020Z,29.44
2016-02-18T19:29:13.023Z,30.89
2016-02-18T19:30:13.011Z,31.67
2016-02-18T19:31:12.981Z,32.15
2016-02-18T19:32:12.969Z,31.37
2016-02-18T19:33:12.941Z,29.16
2016-02-18T19:34:12.928Z,29.16
2016-02-18T19:35:12.914Z,30.42
2016-02-18T19:36:12.917Z,31.01
2016-02-18T19:37:12.889Z,30.71
2016-02-18T19:38:12.891Z,31.39
2016-02-18T19:39:12.862Z,31.1
2016-02-18T19:40:12.835Z,31.01
2016-02-18T19:41:12.821Z,30.91
2016-02-18T19:42:12.808Z,29.36
2016-02-18T19:43:12.796Z,29.73
2016-02-18T19:44:12.766Z,29.84
2016-02-18T19:45:12.754Z,30.91
2016-02-18T19:46:12.741Z,31.01
2016-02-18T19:47:12.712Z,31.29
2016-02-18T19:48:12.699Z,31.39
2016-02-18T19:49:12.702Z,30.91
2016-02-18T19:50:12.674Z,31.39
2016-02-18T19:51:12.660Z,29.74
2016-02-18T19:52:12.632Z,29.06
2016-02-18T19:53:12.620Z,29.26
2016-02-18T19:54:12.607Z,30.81
2016-02-18T19:55:12.593Z,31.87
2016-02-18T19:56:12.581Z,32.44
2016-02-18T19:57:12.567Z,31.87
2016-02-18T19:58:12.554Z,29.73
2016-02-18T19:59:12.526Z,30.02
2016-02-18T20:00:12.513Z,30.6
2016-02-18T20:01:12.500Z,32.06
2016-02-18T20:02:12.487Z,32.44
2016-02-18T20:03:12.474Z,33.51
2016-02-18T20:04:12.445Z,32.34
2016-02-18T20:05:12.448Z,32.23
2016-02-18T20:06:12.419Z,31.94
2016-02-18T20:07:12.408Z,32.14
2016-02-18T20:08:12.378Z,31.56
2016-02-18T20:09:12.365Z,30.58
2016-02-18T20:10:12.353Z,31.26
2016-02-18T20:11:12.339Z,32.52
2016-02-18T20:12:12.326Z,32.33
2016-02-18T20:13:12.313Z,32.52
2016-02-18T20:14:12.285Z,31.84
2016-02-18T20:15:12.260Z,32.52
2016-02-18T20:16:12.235Z,32.33
2016-02-18T20:17:12.209Z,31.84
2016-02-18T20:18:12.183Z,30.49
2016-02-18T20:19:12.142Z,31.26
2016-02-18T20:20:12.124Z,32.04
2016-02-18T20:21:12.107Z,32.81
2016-02-18T20:22:12.088Z,32.52
2016-02-18T20:23:12.072Z,32.21
2016-02-18T20:24:12.070Z,32.79
2016-02-18T20:25:12.023Z,31.15
2016-02-18T20:26:12.009Z,30.76
2016-02-18T20:27:11.995Z,31.83
2016-02-18T20:28:11.964Z,32.31
2016-02-18T20:29:11.951Z,32.31
2016-02-18T20:30:11.936Z,33.28
2016-02-18T20:31:11.922Z,32.41
2016-02-18T20:32:11.893Z,31.93
2016-02-18T20:33:11.880Z,32.51
2016-02-18T20:34:11.866Z,32.79
2016-02-18T20:35:11.852Z,31.34
2016-02-18T20:36:11.840Z,29.99
2016-02-18T20:37:11.810Z,30.68
2016-02-18T20:38:11.799Z,31.36
2016-02-18T20:39:11.785Z,31.65
2016-02-18T20:40:11.773Z,31.74
2016-02-18T20:41:11.744Z,31.16
2016-02-18T20:42:11.731Z,29.71
2016-02-18T20:43:11.718Z,30.29
2016-02-18T20:44:11.705Z,30.98
2016-02-18T20:45:11.692Z,31.36
2016-02-18T20:46:11.664Z,31.96
2016-02-18T20:47:11.651Z,31.76
2016-02-18T20:48:11.638Z,31.96
2016-02-18T20:49:11.625Z,31.28
2016-02-18T20:50:11.596Z,31.67
2016-02-18T20:51:11.599Z,29.44
2016-02-18T20:52:11.570Z,29.53
2016-02-18T20:53:11.557Z,30.41
2016-02-18T20:54:11.544Z,31.09
2016-02-18T20:55:11.531Z,31.18
2016-02-18T20:56:11.519Z,31.29
2016-02-18T20:57:11.490Z,31.2
2016-02-18T20:58:11.867Z,30.79
2016-02-18T20:59:11.464Z,31.1
2016-02-18T21:00:11.452Z,29.46
2016-02-18T21:01:11.423Z,29.55
2016-02-18T21:02:11.410Z,29.46
2016-02-18T21:03:11.397Z,31.1
2016-02-18T21:04:11.384Z,30.91
2016-02-18T21:05:11.262Z,31.68
2016-02-18T21:06:11.345Z,31.78
2016-02-18T21:07:11.331Z,29.74
2016-02-18T21:08:11.319Z,29.83
2016-02-18T21:09:11.306Z,30.52
2016-02-18T21:10:11.292Z,30.91
2016-02-18T21:11:11.264Z,31.49
2016-02-18T21:12:11.251Z,31.29
2016-02-18T21:13:11.395Z,31.97
2016-02-18T21:14:11.226Z,31.2
2016-02-18T21:15:11.197Z,30.52
2016-02-18T21:16:11.199Z,28.97
2016-02-18T21:17:11.187Z,28.87
2016-02-18T21:18:11.158Z,30.32
2016-02-18T21:19:11.144Z,31.39
2016-02-18T21:20:11.133Z,31.49
2016-02-18T21:21:11.119Z,31.97
2016-02-18T21:22:11.091Z,31.18
2016-02-18T21:23:11.078Z,31.96
2016-02-18T21:24:11.064Z,32.06
2016-02-18T21:25:11.052Z,30.6
2016-02-18T21:26:11.039Z,30.41
2016-02-18T21:27:11.010Z,31.37
2016-02-18T21:28:10.997Z,32.04
2016-02-18T21:29:10.999Z,32.33
2016-02-18T21:30:10.972Z,32.71
2016-02-18T21:31:10.958Z,32.52
2016-02-18T21:32:10.945Z,31.84
2016-02-18T21:33:10.917Z,30.29
2016-02-18T21:34:10.904Z,30.78
2016-02-18T21:35:10.891Z,31.74
2016-02-18T21:36:10.862Z,32.33
2016-02-18T21:37:10.865Z,32.71
2016-02-18T21:38:10.837Z,32.52
2016-02-18T21:39:10.824Z,31.74
2016-02-18T21:40:10.811Z,32.04
2016-02-18T21:41:10.782Z,32.91
2016-02-18T21:42:10.770Z,30.96
2016-02-18T21:43:10.756Z,31.15
2016-02-18T21:44:10.743Z,31.93
2016-02-18T21:45:10.731Z,32.21
2016-02-18T21:46:10.702Z,32.89
2016-02-18T21:47:10.690Z,32.41
2016-02-18T21:48:10.692Z,31.05
2016-02-18T21:49:10.648Z,30.86
2016-02-18T21:50:10.634Z,31.73
2016-02-18T21:51:10.622Z,32.31
2016-02-18T21:52:10.608Z,32.7
2016-02-18T21:53:10.611Z,32.99
2016-02-18T21:54:10.566Z,31.84
2016-02-18T21:55:10.554Z,32.23
2016-02-18T21:56:10.542Z,32.81
2016-02-18T21:57:10.528Z,31.65
2016-02-18T21:58:10.515Z,29.71
2016-02-18T21:59:10.503Z,29.83
2016-02-18T22:00:10.474Z,30.98
2016-02-18T22:01:10.460Z,31.67
2016-02-18T22:02:10.449Z,30.89
2016-02-18T22:03:10.435Z,31.86
2016-02-18T22:04:10.407Z,31.57
2016-02-18T22:05:10.238Z,30.99
2016-02-18T22:06:10.381Z,31.09
2016-02-18T22:07:10.368Z,30.89
2016-02-18T22:08:09.621Z,29.63
2016-02-18T22:09:10.357Z,30.51
2016-02-18T22:10:10.313Z,31.09
2016-02-18T22:11:10.316Z,31.86
2016-02-18T22:12:10.287Z,31.18
2016-02-18T22:13:10.259Z,31.96
2016-02-18T22:14:10.262Z,29.34
2016-02-18T22:15:10.248Z,29.05
2016-02-18T22:16:10.220Z,30.52
2016-02-18T22:17:10.207Z,31.29
2016-02-18T22:18:10.194Z,30.6
2016-02-18T22:19:10.166Z,31.01
2016-02-18T22:20:10.153Z,31.29
2016-02-18T22:21:10.139Z,31.49
2016-02-18T22:22:10.128Z,31.2
2016-02-18T22:23:10.114Z,30.81
2016-02-18T22:24:10.085Z,28.87
2016-02-18T22:25:10.073Z,30.04
2016-02-18T22:26:10.060Z,30.6
2016-02-18T22:27:10.046Z,30.91
2016-02-18T22:28:10.033Z,30.81
2016-02-18T22:29:10.005Z,31.49
2016-02-18T22:30:09.991Z,30.81
2016-02-18T22:31:09.995Z,29.36
2016-02-18T22:32:09.966Z,29.46
2016-02-18T22:33:09.953Z,30.81
2016-02-18T22:34:09.925Z,31.39
2016-02-18T22:35:09.912Z,31.78
2016-02-18T22:36:09.898Z,31.29
2016-02-18T22:37:09.902Z,31.2
2016-02-18T22:38:09.873Z,31.78
2016-02-18T22:39:09.860Z,31.67
2016-02-18T22:40:09.832Z,29.53
2016-02-18T22:41:09.818Z,30.21
2016-02-18T22:42:09.806Z,30.99
2016-02-18T22:43:09.793Z,32.34
2016-02-18T22:44:09.764Z,32.33
2016-02-18T22:45:09.751Z,32.15
2016-02-18T22:46:09.739Z,33.01
2016-02-18T22:47:09.725Z,32.52
2016-02-18T22:48:09.713Z,32.42
2016-02-18T22:49:09.684Z,32.04
2016-02-18T22:50:09.670Z,31.07
2016-02-18T22:51:09.658Z,31.46
2016-02-18T22:52:09.645Z,32.42
2016-02-18T22:53:09.632Z,32.23
2016-02-18T22:54:09.619Z,33.2
2016-02-18T22:55:09.606Z,32.52
2016-02-18T22:56:09.577Z,32.42
2016-02-18T22:57:09.565Z,31.25
2016-02-18T22:58:09.536Z,30.86
2016-02-18T22:59:09.538Z,31.83
2016-02-18T23:00:09.527Z,31.93
2016-02-18T23:01:09.591Z,32.12
2016-02-18T23:02:09.484Z,32.52
2016-02-18T23:03:09.456Z,32.71
2016-02-18T23:04:09.443Z,32.51
2016-02-18T23:05:09.430Z,32.89
2016-02-18T23:06:09.418Z,33.95
2016-02-18T23:07:09.420Z,31.93
2016-02-18T23:08:09.391Z,31.05
2016-02-18T23:09:09.363Z,30.96
2016-02-18T23:10:09.349Z,31.93
2016-02-18T23:11:09.336Z,32.42
2016-02-18T23:12:09.308Z,32.42
2016-02-18T23:13:09.295Z,32.52
2016-02-18T23:14:09.282Z,31.65
2016-02-18T23:15:09.270Z,31.36
2016-02-18T23:16:09.256Z,31.76
2016-02-18T23:17:09.228Z,29.73
2016-02-18T23:18:09.215Z,29.44
2016-02-18T23:19:09.202Z,30.6
2016-02-18T23:20:09.189Z,31.47
2016-02-18T23:21:09.175Z,31.47
2016-02-18T23:22:09.147Z,31.18
2016-02-18T23:23:09.135Z,31.86
2016-02-18T23:24:09.122Z,30.69
2016-02-18T23:25:09.109Z,29.05
2016-02-18T23:26:09.096Z,30.51
2016-02-18T23:27:09.067Z,30.6
2016-02-18T23:28:09.055Z,31.28
2016-02-18T23:29:09.041Z,30.99
2016-02-18T23:30:09.028Z,32.06
2016-02-18T23:31:09.000Z,31.86
2016-02-18T23:32:08.988Z,30.89
2016-02-18T23:33:08.974Z,31.18
2016-02-18T23:34:08.961Z,29.74
2016-02-18T23:35:08.932Z,30.13
2016-02-18T23:36:08.919Z,30.23
2016-02-18T23:37:08.922Z,30.89
2016-02-18T23:38:08.893Z,30.91
2016-02-18T23:39:08.881Z,31.1
2016-02-18T23:40:08.868Z,31.59
2016-02-18T23:41:08.839Z,31.39
2016-02-18T23:42:08.826Z,30.71
2016-02-18T23:43:08.813Z,29.64
2016-02-18T23:44:08.800Z,29.55
2016-02-18T23:45:08.788Z,30.42
2016-02-18T23:46:08.775Z,30.71
2016-02-18T23:47:08.745Z,31.29
2016-02-18T23:48:08.749Z,31.87
2016-02-18T23:49:08.720Z,31.39
2016-02-18T23:50:08.692Z,28.87
2016-02-18T23:51:08.679Z,29.74
2016-02-18T23:52:08.666Z,31.18
2016-02-18T23:53:08.669Z,32.06
2016-02-18T23:54:08.656Z,32.24
2016-02-18T23:55:08.642Z,32.15
2016-02-18T23:56:08.613Z,31.76
2016-02-18T23:57:08.586Z,32.44
2016-02-18T23:58:08.572Z,31.96
2016-02-18T23:59:08.560Z,31.57
